Site contains unofficial IBTrACS data. Visit the IBTrACS Website to access archived data.

1922 NOT_NAMED (1922317N13128)


IBTrACS version v04r00. Visit IBTrACS website for data access.
Please direct all questions to the IBTrACS Q and A forum

Storm track - Intensity - Wind Radii - Intensity Data - Source Data - All data

Summary Information

Storm ID 1922317N13128
Start Nov 12 22Z
End Nov 17 22Z
ATCF IDs
Track status Best track data.

Storm track plot

Map of storm track

Intensity plots

No Intensity information for this storm


Radial wind information

No radial wind information for this storm


Position and Intensity Table

BASIN ISO_TIME_________ NATURE LAT LON
degrees north degrees east
WP 1922-11-12 22:00:00 NR 12.90 128.30
WP 1922-11-13 00:00:00 NR 12.88 128.23
WP 03:00:00 NR 12.87 128.13
WP 06:00:00 NR 12.91 128.03
WP 09:00:00 NR 13.04 127.93
WP 10:00:00 NR 13.10 127.90
WP 12:00:00 NR 13.26 127.84
WP 15:00:00 NR 13.58 127.75
WP 18:00:00 NR 13.94 127.65
WP 21:00:00 NR 14.29 127.54
WP 22:00:00 NR 14.40 127.50
WP 1922-11-14 00:00:00 NR 14.58 127.41
WP 03:00:00 NR 14.83 127.25
WP 06:00:00 NR 15.05 127.10
WP 09:00:00 NR 15.24 126.95
WP 10:00:00 NR 15.30 126.90
WP 12:00:00 NR 15.41 126.83
WP 15:00:00 NR 15.56 126.74
WP 18:00:00 NR 15.70 126.65
WP 21:00:00 NR 15.85 126.54
WP 22:00:00 NR 15.90 126.50
WP 1922-11-15 00:00:00 NR 16.02 126.38
WP 03:00:00 NR 16.20 126.17
WP 06:00:00 NR 16.41 125.95
WP 09:00:00 NR 16.62 125.75
WP 10:00:00 NR 16.70 125.70
WP 12:00:00 NR 16.83 125.59
WP 15:00:00 NR 17.04 125.46
WP 18:00:00 NR 17.28 125.38
WP 21:00:00 NR 17.58 125.38
WP 22:00:00 NR 17.70 125.40
WP 1922-11-16 00:00:00 NR 17.99 125.47
WP 03:00:00 NR 18.48 125.65
WP 06:00:00 NR 18.99 125.90
WP 09:00:00 NR 19.46 126.20
WP 10:00:00 NR 19.60 126.30
WP 12:00:00 NR 19.74 126.32
WP 15:00:00 NR 19.88 126.37
WP 18:00:00 NR 20.07 126.62
WP 21:00:00 NR 20.42 127.26
WP 22:00:00 NR 20.60 127.60
WP 1922-11-17 00:00:00 NR 21.07 128.55
WP 03:00:00 NR 21.95 130.43
WP 06:00:00 NR 22.98 132.67
WP 09:00:00 NR 24.11 135.09
WP 10:00:00 NR 24.50 135.90
WP 12:00:00 NR 25.29 137.50
WP 15:00:00 NR 26.49 139.87
WP 18:00:00 NR 27.71 142.23
WP 21:00:00 NR 28.91 144.60
WP 22:00:00 NR 29.30 145.40

Source Information

Agency Information
USA
TOKYO
CMA
HKO
NEWDELHI
REUNION
BOM
NADI
WELLINGTON
DS824
TD9636 cons_worldwide_trop_cyclone_18710101-19891231-003:Line=6803
TD9635
NEUMANN
MLC

All available IBTrACS Data

SEASON BASIN SUBBASIN ISO_TIME_________ NATURE LAT LON DIST2LAND LANDFALL IFLAG USA SSHS TD9636 LAT TD9636 LON TD9636 STAGE STORM SPEED STORM DIR
Year degrees north degrees east km km 1 degrees north degrees east kts degrees
1922 WP MM 1922-11-12 22:00:00 NR 12.90 128.30 314 303 __________O___ -1 12.90 128.30 2 2 254
1922 WP MM 1922-11-13 00:00:00 NR 12.88 128.23 303 293 __________P___ -1 12.88 128.23 2 2 261
1922 WP MM 03:00:00 NR 12.87 128.13 293 282 __________P___ -1 12.87 128.13 2 2 280
1922 WP MM 06:00:00 NR 12.91 128.03 282 275 __________P___ -1 12.91 128.03 2 3 310
1922 WP MM 09:00:00 NR 13.04 127.93 275 275 __________P___ -1 13.04 127.93 2 3 326
1922 WP MM 10:00:00 NR 13.10 127.90 279 273 __________O___ -1 13.10 127.90 2 5 339
1922 WP MM 12:00:00 NR 13.26 127.84 278 278 __________P___ -1 13.26 127.84 2 6 343
1922 WP MM 15:00:00 NR 13.58 127.75 285 285 __________P___ -1 13.58 127.75 2 7 345
1922 WP MM 18:00:00 NR 13.94 127.65 296 303 __________P___ -1 13.94 127.65 2 7 344
1922 WP MM 21:00:00 NR 14.29 127.54 319 319 __________P___ -1 14.29 127.54 2 7 343
1922 WP MM 22:00:00 NR 14.40 127.50 326 326 __________O___ -1 14.40 127.50 2 6 336
1922 WP MM 1922-11-14 00:00:00 NR 14.58 127.41 332 325 __________P___ -1 14.58 127.41 2 6 331
1922 WP MM 03:00:00 NR 14.83 127.25 328 315 __________P___ -1 14.83 127.25 2 6 327
1922 WP MM 06:00:00 NR 15.05 127.10 315 306 __________P___ -1 15.05 127.10 2 5 324
1922 WP MM 09:00:00 NR 15.24 126.95 306 311 __________P___ -1 15.24 126.95 2 5 324
1922 WP MM 10:00:00 NR 15.30 126.90 311 308 __________O___ -1 15.30 126.90 2 4 327
1922 WP MM 12:00:00 NR 15.41 126.83 308 308 __________P___ -1 15.41 126.83 2 4 330
1922 WP MM 15:00:00 NR 15.56 126.74 312 312 __________P___ -1 15.56 126.74 2 3 329
1922 WP MM 18:00:00 NR 15.70 126.65 319 310 __________P___ -1 15.70 126.65 2 3 326
1922 WP MM 21:00:00 NR 15.85 126.54 310 317 __________P___ -1 15.85 126.54 2 4 324
1922 WP MM 22:00:00 NR 15.90 126.50 317 317 __________O___ -1 15.90 126.50 2 5 317
1922 WP MM 1922-11-15 00:00:00 NR 16.02 126.38 317 310 __________P___ -1 16.02 126.38 2 5 313
1922 WP MM 03:00:00 NR 16.20 126.17 319 313 __________P___ -1 16.20 126.17 2 6 314
1922 WP MM 06:00:00 NR 16.41 125.95 318 318 __________P___ -1 16.41 125.95 2 6 317
1922 WP MM 09:00:00 NR 16.62 125.75 332 327 __________P___ -1 16.62 125.75 2 6 321
1922 WP MM 10:00:00 NR 16.70 125.70 337 330 __________O___ -1 16.70 125.70 2 5 323
1922 WP MM 12:00:00 NR 16.83 125.59 330 319 __________P___ -1 16.83 125.59 2 5 326
1922 WP MM 15:00:00 NR 17.04 125.46 319 308 __________P___ -1 17.04 125.46 2 5 336
1922 WP MM 18:00:00 NR 17.28 125.38 310 310 __________P___ -1 17.28 125.38 2 6 352
1922 WP MM 21:00:00 NR 17.58 125.38 315 315 __________P___ -1 17.58 125.38 2 6 0
1922 WP MM 22:00:00 NR 17.70 125.40 317 317 __________O___ -1 17.70 125.40 2 8 13
1922 WP MM 1922-11-16 00:00:00 NR 17.99 125.47 337 337 __________P___ -1 17.99 125.47 2 10 17
1922 WP MM 03:00:00 NR 18.48 125.65 358 358 __________P___ -1 18.48 125.65 2 11 22
1922 WP MM 06:00:00 NR 18.99 125.90 385 385 __________P___ -1 18.99 125.90 2 11 28
1922 WP MM 09:00:00 NR 19.46 126.20 428 428 __________P___ -1 19.46 126.20 2 11 32
1922 WP MM 10:00:00 NR 19.60 126.30 441 441 __________O___ -1 19.60 126.30 2 6 23
1922 WP MM 12:00:00 NR 19.74 126.32 444 444 __________P___ -1 19.74 126.32 2 3 14
1922 WP MM 15:00:00 NR 19.88 126.37 462 462 __________P___ -1 19.88 126.37 2 4 40
1922 WP MM 18:00:00 NR 20.07 126.62 489 489 __________P___ -1 20.07 126.62 2 10 57
1922 WP MM 21:00:00 NR 20.42 127.26 570 574 __________P___ -1 20.42 127.26 2 16 60
1922 WP MM 22:00:00 NR 20.60 127.60 607 607 __________O___ -1 20.60 127.60 2 27 62
1922 WP MM 1922-11-17 00:00:00 NR 21.07 128.55 725 725 __________P___ -1 21.07 128.55 2 36 63
1922 WP MM 03:00:00 NR 21.95 130.43 915 915 __________P___ -1 21.95 130.43 2 43 63
1922 WP MM 06:00:00 NR 22.98 132.67 915 876 __________P___ -1 22.98 132.67 2 48 63
1922 WP MM 09:00:00 NR 24.11 135.09 883 878 __________P___ -1 24.11 135.09 2 50 63
1922 WP MM 10:00:00 NR 24.50 135.90 887 882 __________O___ -1 24.50 135.90 2 50 62
1922 WP MM 12:00:00 NR 25.29 137.50 904 862 __________P___ -1 25.29 137.50 2 49 61
1922 WP MM 15:00:00 NR 26.49 139.87 864 832 __________P___ -1 26.49 139.87 2 49 60
1922 WP MM 18:00:00 NR 27.71 142.23 832 796 __________P___ -1 27.71 142.23 2 48 60
1922 WP MM 21:00:00 NR 28.91 144.60 802 798 __________P___ -1 28.91 144.60 2 48 60
1922 WP MM 22:00:00 NR 29.30 145.40 807 __________O___ -1 29.30 145.40 7 48 61